Time,TemperatureF,DewpointF,PressureIn,WindDirection,WindDirectionDegrees,WindSpeedMPH,WindSpeedGustMPH,Humidity,HourlyPrecipIn,Conditions,Clouds,dailyrainin,SolarRadiationWatts/m^2,SoftwareType,DateUTC
2013-07-18 00:01:00,66.0,28.0,-100.00,NNW,333,19.0,22.0,24,0.00,,,0.00,0.000000,,2013-07-18 07:01:00,
2013-07-18 00:11:00,66.0,28.0,-100.00,NNW,333,19.0,22.0,24,0.00,,,0.00,0.000000,,2013-07-18 07:11:00,
2013-07-18 00:22:00,66.0,28.0,-100.00,NNW,333,19.0,22.0,24,0.00,,,0.00,0.000000,,2013-07-18 07:22:00,
2013-07-18 03:01:00,63.0,39.0,-100.00,NW,326,17.0,23.0,41,-99.99,,,0.00,0.000000,,2013-07-18 10:01:00,
2013-07-18 03:11:00,63.0,39.0,-100.00,NW,326,17.0,23.0,41,-99.99,,,0.00,0.000000,,2013-07-18 10:11:00,
2013-07-18 03:21:00,63.0,39.0,-100.00,NW,326,17.0,23.0,41,-99.99,,,0.00,0.000000,,2013-07-18 10:21:00,
2013-07-18 05:52:00,60.0,35.0,-100.00,NNW,329,12.0,19.0,39,-99.99,,,0.00,0.000000,,2013-07-18 12:52:00,
2013-07-18 06:01:00,60.0,35.0,-100.00,NNW,329,12.0,19.0,39,-99.99,,,0.00,0.000000,,2013-07-18 13:01:00,
2013-07-18 06:11:00,60.0,35.0,-100.00,NNW,329,12.0,19.0,39,-99.99,,,0.00,0.000000,,2013-07-18 13:11:00,
2013-07-18 06:22:00,60.0,35.0,-100.00,NNW,329,12.0,19.0,39,-99.99,,,0.00,0.000000,,2013-07-18 13:22:00,
2013-07-18 07:02:00,62.0,28.0,-100.00,NW,322,4.0,18.0,27,0.00,,,0.00,0.000000,,2013-07-18 14:02:00,
2013-07-18 07:11:00,62.0,28.0,-100.00,NW,322,4.0,18.0,27,0.00,,,0.00,0.000000,,2013-07-18 14:11:00,
2013-07-18 07:22:00,62.0,28.0,-100.00,NW,322,4.0,18.0,27,0.00,,,0.00,0.000000,,2013-07-18 14:22:00,
2013-07-18 07:53:00,65.0,15.0,-100.00,East,92,3.0,17.0,14,-99.99,,,0.00,15.000000,,2013-07-18 14:53:00,
2013-07-18 08:01:00,65.0,15.0,-100.00,East,92,3.0,17.0,14,-99.99,,,0.00,15.000000,,2013-07-18 15:01:00,
2013-07-18 08:11:00,65.0,15.0,-100.00,East,92,3.0,17.0,14,-99.99,,,0.00,15.000000,,2013-07-18 15:11:00,
2013-07-18 08:22:00,65.0,15.0,-100.00,East,92,3.0,17.0,14,-99.99,,,0.00,15.000000,,2013-07-18 15:22:00,
2013-07-18 08:53:00,76.0,20.0,-100.00,East,90,5.0,6.0,12,0.00,,,0.00,200.000000,,2013-07-18 15:53:00,
2013-07-18 09:52:00,79.0,18.0,-100.00,East,81,6.0,9.0,10,0.00,,,0.00,480.000000,,2013-07-18 16:52:00,
2013-07-18 10:22:00,79.0,18.0,-100.00,East,81,6.0,9.0,10,0.00,,,0.00,480.000000,,2013-07-18 17:22:00,
2013-07-18 11:01:00,81.0,32.0,-100.00,SE,138,5.0,11.0,17,0.00,,,0.00,735.000000,,2013-07-18 18:01:00,
2013-07-18 11:11:00,81.0,32.0,-100.00,SE,138,5.0,11.0,17,0.00,,,0.00,735.000000,,2013-07-18 18:11:00,
2013-07-18 11:52:00,82.0,20.0,-100.00,ESE,114,8.0,10.0,10,0.00,,,0.00,962.000000,,2013-07-18 18:52:00,
2013-07-18 12:01:00,82.0,20.0,-100.00,ESE,114,8.0,10.0,10,0.00,,,0.00,962.000000,,2013-07-18 19:01:00,
2013-07-18 12:11:00,82.0,20.0,-100.00,ESE,114,8.0,10.0,10,0.00,,,0.00,962.000000,,2013-07-18 19:11:00,
2013-07-18 12:53:00,82.0,20.0,-100.00,SE,137,9.0,14.0,10,0.00,,,0.00,1129.000000,,2013-07-18 19:53:00,
2013-07-18 13:01:00,82.0,20.0,-100.00,SE,137,9.0,14.0,10,0.00,,,0.00,1129.000000,,2013-07-18 20:01:00,
2013-07-18 13:11:00,82.0,20.0,-100.00,SE,137,9.0,14.0,10,0.00,,,0.00,1129.000000,,2013-07-18 20:11:00,
2013-07-18 13:21:00,82.0,20.0,-100.00,SE,137,9.0,14.0,10,0.00,,,0.00,1129.000000,,2013-07-18 20:21:00,
2013-07-18 13:52:00,81.0,14.0,-100.00,SE,132,10.0,18.0,8,0.00,,,0.00,1222.000000,,2013-07-18 20:52:00,
2013-07-18 14:01:00,81.0,14.0,-100.00,SE,132,10.0,18.0,8,0.00,,,0.00,1222.000000,,2013-07-18 21:01:00,
2013-07-18 14:11:00,81.0,14.0,-100.00,SE,132,10.0,18.0,8,0.00,,,0.00,1222.000000,,2013-07-18 21:11:00,
2013-07-18 14:22:00,81.0,14.0,-100.00,SE,132,10.0,18.0,8,0.00,,,0.00,1222.000000,,2013-07-18 21:22:00,
2013-07-18 14:52:00,83.0,16.0,-100.00,SE,124,6.0,20.0,8,0.00,,,0.00,1257.000000,,2013-07-18 21:52:00,
2013-07-18 15:01:00,83.0,16.0,-100.00,SE,124,6.0,20.0,8,0.00,,,0.00,1257.000000,,2013-07-18 22:01:00,
2013-07-18 15:11:00,83.0,16.0,-100.00,SE,124,6.0,20.0,8,0.00,,,0.00,1257.000000,,2013-07-18 22:11:00,
2013-07-18 15:22:00,83.0,16.0,-100.00,SE,124,6.0,20.0,8,0.00,,,0.00,1257.000000,,2013-07-18 22:22:00,
2013-07-18 15:53:00,87.0,16.0,-100.00,East,96,5.0,16.0,7,0.00,,,0.00,1180.000000,,2013-07-18 22:53:00,
2013-07-18 16:02:00,87.0,16.0,-100.00,East,96,5.0,16.0,7,0.00,,,0.00,1180.000000,,2013-07-18 23:02:00,
2013-07-18 16:11:00,87.0,16.0,-100.00,East,96,5.0,16.0,7,0.00,,,0.00,1180.000000,,2013-07-18 23:11:00,
2013-07-18 16:52:00,89.0,13.0,-100.00,SE,141,5.0,18.0,6,0.00,,,0.00,1127.000000,,2013-07-18 23:52:00,
2013-07-18 17:01:00,89.0,13.0,-100.00,SE,141,5.0,18.0,6,0.00,,,0.00,1127.000000,,2013-07-19 00:01:00,
2013-07-18 17:11:00,89.0,13.0,-100.00,SE,141,5.0,18.0,6,0.00,,,0.00,1127.000000,,2013-07-19 00:11:00,
2013-07-18 17:22:00,89.0,13.0,-100.00,SE,141,5.0,18.0,6,0.00,,,0.00,1127.000000,,2013-07-19 00:22:00,
2013-07-18 17:52:00,89.0,34.0,-100.00,NNW,338,7.0,13.0,14,0.00,,,0.00,944.000000,,2013-07-19 00:52:00,
2013-07-18 18:11:00,89.0,34.0,-100.00,NNW,338,7.0,13.0,14,0.00,,,0.00,944.000000,,2013-07-19 01:11:00,
2013-07-18 18:52:00,88.0,43.0,-100.00,NW,320,14.0,18.0,21,0.00,,,0.00,712.000000,,2013-07-19 01:52:00,
2013-07-18 19:01:00,88.0,43.0,-100.00,NW,320,14.0,18.0,21,0.00,,,0.00,712.000000,,2013-07-19 02:01:00,
2013-07-18 19:11:00,88.0,43.0,-100.00,NW,320,14.0,18.0,21,0.00,,,0.00,712.000000,,2013-07-19 02:11:00,
2013-07-18 19:52:00,79.0,39.0,-100.00,NNW,334,15.0,23.0,24,0.00,,,0.00,329.000000,,2013-07-19 02:52:00,
2013-07-18 20:01:00,79.0,39.0,-100.00,NNW,334,15.0,23.0,24,0.00,,,0.00,329.000000,,2013-07-19 03:01:00,
2013-07-18 20:11:00,79.0,39.0,-100.00,NNW,334,15.0,23.0,24,0.00,,,0.00,329.000000,,2013-07-19 03:11:00,
2013-07-18 20:22:00,79.0,39.0,-100.00,NNW,334,15.0,23.0,24,0.00,,,0.00,329.000000,,2013-07-19 03:22:00,
2013-07-18 20:52:00,75.0,36.0,-100.00,NNW,334,17.0,23.0,24,0.00,,,0.00,51.000000,,2013-07-19 03:52:00,
2013-07-18 21:02:00,75.0,36.0,-100.00,NNW,334,17.0,23.0,24,0.00,,,0.00,51.000000,,2013-07-19 04:02:00,
2013-07-18 21:12:00,75.0,36.0,-100.00,NNW,334,17.0,23.0,24,0.00,,,0.00,51.000000,,2013-07-19 04:12:00,
2013-07-18 21:21:00,75.0,36.0,-100.00,NNW,334,17.0,23.0,24,0.00,,,0.00,51.000000,,2013-07-19 04:21:00,
2013-07-18 21:52:00,71.0,34.0,-100.00,NNW,328,20.0,23.0,26,0.00,,,0.00,20.000000,,2013-07-19 04:52:00,
2013-07-18 22:02:00,71.0,34.0,-100.00,NNW,328,20.0,23.0,26,0.00,,,0.00,20.000000,,2013-07-19 05:02:00,
2013-07-18 22:11:00,71.0,34.0,-100.00,NNW,328,20.0,23.0,26,0.00,,,0.00,20.000000,,2013-07-19 05:11:00,
2013-07-18 22:21:00,71.0,34.0,-100.00,NNW,328,20.0,23.0,26,0.00,,,0.00,20.000000,,2013-07-19 05:21:00,
2013-07-18 23:01:00,70.0,34.0,-100.00,NNW,327,19.0,27.0,27,-99.99,,,0.00,0.000000,,2013-07-19 06:01:00,
2013-07-18 23:11:00,70.0,34.0,-100.00,NNW,327,19.0,27.0,27,-99.99,,,0.00,0.000000,,2013-07-19 06:11:00,
2013-07-18 23:22:00,70.0,34.0,-100.00,NNW,327,19.0,27.0,27,-99.99,,,0.00,0.000000,,2013-07-19 06:22:00,
2013-07-18 23:52:00,69.0,35.0,-100.00,NW,325,19.0,25.0,28,0.00,,,0.00,0.000000,,2013-07-19 06:52:00,